sensor_id;sensor_type;location;lat;lon;timestamp;pressure;altitude;pressure_sealevel;temperature
68952;BMP180;56000;51.146;17.112;2023-06-24T00:01:21;100471.20;;;19.50
68952;BMP180;56000;51.146;17.112;2023-06-24T00:03:55;100473.80;;;19.50
68952;BMP180;56000;51.146;17.112;2023-06-24T00:06:28;100476.40;;;19.50
68952;BMP180;56000;51.146;17.112;2023-06-24T00:09:01;100478.00;;;19.50
68952;BMP180;56000;51.146;17.112;2023-06-24T00:11:35;100480.40;;;19.50
68952;BMP180;56000;51.146;17.112;2023-06-24T00:14:08;100485.00;;;19.50
68952;BMP180;56000;51.146;17.112;2023-06-24T00:16:42;100488.20;;;19.40
68952;BMP180;56000;51.146;17.112;2023-06-24T00:19:18;100484.80;;;19.40
68952;BMP180;56000;51.146;17.112;2023-06-24T00:21:52;100480.00;;;19.40
68952;BMP180;56000;51.146;17.112;2023-06-24T00:24:26;100479.60;;;19.40
68952;BMP180;56000;51.146;17.112;2023-06-24T00:26:59;100478.80;;;19.30
68952;BMP180;56000;51.146;17.112;2023-06-24T00:29:32;100476.60;;;19.30
68952;BMP180;56000;51.146;17.112;2023-06-24T00:32:07;100476.00;;;19.30
68952;BMP180;56000;51.146;17.112;2023-06-24T00:34:40;100477.20;;;19.22
68952;BMP180;56000;51.146;17.112;2023-06-24T00:37:15;100481.20;;;19.20
68952;BMP180;56000;51.146;17.112;2023-06-24T00:39:48;100484.00;;;19.20
68952;BMP180;56000;51.146;17.112;2023-06-24T00:42:22;100482.80;;;19.20
68952;BMP180;56000;51.146;17.112;2023-06-24T00:44:55;100488.20;;;19.20
68952;BMP180;56000;51.146;17.112;2023-06-24T00:47:28;100490.60;;;19.12
68952;BMP180;56000;51.146;17.112;2023-06-24T00:50:07;100493.20;;;19.10
68952;BMP180;56000;51.146;17.112;2023-06-24T00:52:43;100494.40;;;19.10
68952;BMP180;56000;51.146;17.112;2023-06-24T00:55:18;100497.60;;;19.10
68952;BMP180;56000;51.146;17.112;2023-06-24T00:57:55;100505.00;;;19.00
68952;BMP180;56000;51.146;17.112;2023-06-24T01:00:31;100506.60;;;19.00
68952;BMP180;56000;51.146;17.112;2023-06-24T01:03:06;100508.80;;;19.00
68952;BMP180;56000;51.146;17.112;2023-06-24T01:05:41;100500.40;;;19.00
68952;BMP180;56000;51.146;17.112;2023-06-24T01:08:15;100506.20;;;18.90
68952;BMP180;56000;51.146;17.112;2023-06-24T01:10:49;100502.00;;;18.90
68952;BMP180;56000;51.146;17.112;2023-06-24T01:13:22;100507.20;;;18.90
68952;BMP180;56000;51.146;17.112;2023-06-24T01:15:56;100508.40;;;18.90
68952;BMP180;56000;51.146;17.112;2023-06-24T01:18:41;100519.00;;;18.90
68952;BMP180;56000;51.146;17.112;2023-06-24T01:21:25;100526.40;;;18.90
68952;BMP180;56000;51.146;17.112;2023-06-24T01:27:39;100540.40;;;18.80
68952;BMP180;56000;51.146;17.112;2023-06-24T01:30:52;100544.60;;;18.80
68952;BMP180;56000;51.146;17.112;2023-06-24T01:33:39;100553.20;;;18.80
68952;BMP180;56000;51.146;17.112;2023-06-24T01:36:17;100559.40;;;18.70
68952;BMP180;56000;51.146;17.112;2023-06-24T01:38:55;100563.60;;;18.60
68952;BMP180;56000;51.146;17.112;2023-06-24T01:41:34;100570.20;;;18.50
68952;BMP180;56000;51.146;17.112;2023-06-24T01:44:09;100575.60;;;18.40
68952;BMP180;56000;51.146;17.112;2023-06-24T01:46:44;100578.60;;;18.30
68952;BMP180;56000;51.146;17.112;2023-06-24T01:49:20;100567.80;;;18.30
68952;BMP180;56000;51.146;17.112;2023-06-24T01:51:57;100578.80;;;18.20
68952;BMP180;56000;51.146;17.112;2023-06-24T01:54:33;100586.20;;;18.20
68952;BMP180;56000;51.146;17.112;2023-06-24T01:57:08;100584.20;;;18.10
68952;BMP180;56000;51.146;17.112;2023-06-24T01:59:45;100590.80;;;18.04
68952;BMP180;56000;51.146;17.112;2023-06-24T02:02:20;100601.00;;;18.00
68952;BMP180;56000;51.146;17.112;2023-06-24T02:04:54;100595.00;;;17.90
68952;BMP180;56000;51.146;17.112;2023-06-24T02:07:29;100600.40;;;17.80
68952;BMP180;56000;51.146;17.112;2023-06-24T02:10:05;100595.80;;;17.80
68952;BMP180;56000;51.146;17.112;2023-06-24T02:12:39;100595.00;;;17.60
68952;BMP180;56000;51.146;17.112;2023-06-24T02:15:13;100600.00;;;17.50
68952;BMP180;56000;51.146;17.112;2023-06-24T02:17:47;100600.60;;;17.44
68952;BMP180;56000;51.146;17.112;2023-06-24T02:20:23;100607.20;;;17.40
68952;BMP180;56000;51.146;17.112;2023-06-24T02:22:58;100608.60;;;17.30
68952;BMP180;56000;51.146;17.112;2023-06-24T02:25:32;100614.60;;;17.24
68952;BMP180;56000;51.146;17.112;2023-06-24T02:28:07;100618.20;;;17.20
68952;BMP180;56000;51.146;17.112;2023-06-24T02:30:41;100614.00;;;17.10
68952;BMP180;56000;51.146;17.112;2023-06-24T02:33:15;100620.20;;;17.10
68952;BMP180;56000;51.146;17.112;2023-06-24T02:35:48;100616.20;;;17.00
68952;BMP180;56000;51.146;17.112;2023-06-24T02:38:21;100623.60;;;17.00
68952;BMP180;56000;51.146;17.112;2023-06-24T02:40:57;100627.80;;;17.00
68952;BMP180;56000;51.146;17.112;2023-06-24T02:43:32;100628.60;;;16.90
68952;BMP180;56000;51.146;17.112;2023-06-24T02:46:09;100631.60;;;16.84
68952;BMP180;56000;51.146;17.112;2023-06-24T02:48:47;100630.80;;;16.80
68952;BMP180;56000;51.146;17.112;2023-06-24T02:51:21;100634.60;;;16.80
68952;BMP180;56000;51.146;17.112;2023-06-24T02:53:55;100640.20;;;16.70
68952;BMP180;56000;51.146;17.112;2023-06-24T02:56:47;100637.60;;;16.70
68952;BMP180;56000;51.146;17.112;2023-06-24T02:59:26;100640.00;;;16.60
68952;BMP180;56000;51.146;17.112;2023-06-24T03:02:01;100639.60;;;16.58
68952;BMP180;56000;51.146;17.112;2023-06-24T03:04:36;100643.80;;;16.50
68952;BMP180;56000;51.146;17.112;2023-06-24T03:07:09;100648.00;;;16.44
68952;BMP180;56000;51.146;17.112;2023-06-24T03:09:44;100655.80;;;16.40
68952;BMP180;56000;51.146;17.112;2023-06-24T03:12:17;100658.20;;;16.38
68952;BMP180;56000;51.146;17.112;2023-06-24T03:14:50;100660.80;;;16.30
68952;BMP180;56000;51.146;17.112;2023-06-24T03:17:24;100669.80;;;16.20
68952;BMP180;56000;51.146;17.112;2023-06-24T03:19:57;100673.00;;;16.20
68952;BMP180;56000;51.146;17.112;2023-06-24T03:22:30;100680.20;;;16.10
68952;BMP180;56000;51.146;17.112;2023-06-24T03:25:04;100683.20;;;16.10
68952;BMP180;56000;51.146;17.112;2023-06-24T03:27:37;100687.80;;;16.10
68952;BMP180;56000;51.146;17.112;2023-06-24T03:30:14;100689.20;;;16.08
68952;BMP180;56000;51.146;17.112;2023-06-24T03:32:47;100694.40;;;16.10
68952;BMP180;56000;51.146;17.112;2023-06-24T03:35:21;100696.00;;;16.10
68952;BMP180;56000;51.146;17.112;2023-06-24T03:37:57;100700.40;;;16.10
68952;BMP180;56000;51.146;17.112;2023-06-24T03:40:30;100701.00;;;16.10
68952;BMP180;56000;51.146;17.112;2023-06-24T03:43:04;100704.80;;;16.10
68952;BMP180;56000;51.146;17.112;2023-06-24T03:45:37;100714.20;;;16.10
68952;BMP180;56000;51.146;17.112;2023-06-24T03:48:10;100718.40;;;16.10
68952;BMP180;56000;51.146;17.112;2023-06-24T03:50:44;100721.00;;;16.10
68952;BMP180;56000;51.146;17.112;2023-06-24T03:53:17;100720.00;;;16.10
68952;BMP180;56000;51.146;17.112;2023-06-24T03:55:50;100721.40;;;16.02
68952;BMP180;56000;51.146;17.112;2023-06-24T03:58:23;100721.20;;;16.06
68952;BMP180;56000;51.146;17.112;2023-06-24T04:00:56;100729.20;;;16.10
68952;BMP180;56000;51.146;17.112;2023-06-24T04:03:30;100728.20;;;16.10
68952;BMP180;56000;51.146;17.112;2023-06-24T04:06:04;100730.60;;;16.10
68952;BMP180;56000;51.146;17.112;2023-06-24T04:08:37;100731.60;;;16.10
68952;BMP180;56000;51.146;17.112;2023-06-24T04:11:11;100731.00;;;16.10
68952;BMP180;56000;51.146;17.112;2023-06-24T04:13:45;100732.00;;;16.10
68952;BMP180;56000;51.146;17.112;2023-06-24T04:16:20;100733.20;;;16.10
68952;BMP180;56000;51.146;17.112;2023-06-24T04:18:53;100738.00;;;16.10
68952;BMP180;56000;51.146;17.112;2023-06-24T04:21:26;100744.80;;;16.00
68952;BMP180;56000;51.146;17.112;2023-06-24T04:23:59;100744.80;;;16.10
68952;BMP180;56000;51.146;17.112;2023-06-24T04:26:33;100742.00;;;16.10
68952;BMP180;56000;51.146;17.112;2023-06-24T04:29:06;100745.80;;;16.10
68952;BMP180;56000;51.146;17.112;2023-06-24T04:31:39;100741.20;;;16.10
68952;BMP180;56000;51.146;17.112;2023-06-24T04:34:12;100742.40;;;16.10
68952;BMP180;56000;51.146;17.112;2023-06-24T04:36:46;100745.80;;;16.08
68952;BMP180;56000;51.146;17.112;2023-06-24T04:39:21;100749.60;;;16.06
68952;BMP180;56000;51.146;17.112;2023-06-24T04:41:54;100758.60;;;16.08
68952;BMP180;56000;51.146;17.112;2023-06-24T04:44:27;100763.20;;;16.10
68952;BMP180;56000;51.146;17.112;2023-06-24T04:47:00;100769.80;;;16.10
68952;BMP180;56000;51.146;17.112;2023-06-24T04:49:34;100773.40;;;16.08
68952;BMP180;56000;51.146;17.112;2023-06-24T04:52:09;100777.00;;;16.00
68952;BMP180;56000;51.146;17.112;2023-06-24T04:54:43;100781.60;;;16.00
68952;BMP180;56000;51.146;17.112;2023-06-24T04:57:28;100785.40;;;16.00
68952;BMP180;56000;51.146;17.112;2023-06-24T05:00:02;100787.00;;;15.98
68952;BMP180;56000;51.146;17.112;2023-06-24T05:02:36;100790.40;;;15.96
68952;BMP180;56000;51.146;17.112;2023-06-24T05:05:10;100798.20;;;15.90
68952;BMP180;56000;51.146;17.112;2023-06-24T05:07:43;100800.00;;;15.90
68952;BMP180;56000;51.146;17.112;2023-06-24T05:10:16;100806.40;;;15.90
68952;BMP180;56000;51.146;17.112;2023-06-24T05:12:49;100806.60;;;15.90
68952;BMP180;56000;51.146;17.112;2023-06-24T05:15:22;100813.20;;;15.90
68952;BMP180;56000;51.146;17.112;2023-06-24T05:17:57;100822.40;;;15.90
68952;BMP180;56000;51.146;17.112;2023-06-24T05:20:30;100816.40;;;15.90
68952;BMP180;56000;51.146;17.112;2023-06-24T05:23:03;100821.80;;;15.82
68952;BMP180;56000;51.146;17.112;2023-06-24T05:25:36;100823.60;;;15.80
68952;BMP180;56000;51.146;17.112;2023-06-24T05:28:10;100830.40;;;15.80
68952;BMP180;56000;51.146;17.112;2023-06-24T05:30:46;100830.80;;;15.80
68952;BMP180;56000;51.146;17.112;2023-06-24T05:33:19;100829.40;;;15.80
68952;BMP180;56000;51.146;17.112;2023-06-24T05:35:52;100835.80;;;15.80
68952;BMP180;56000;51.146;17.112;2023-06-24T05:38:25;100834.40;;;15.84
68952;BMP180;56000;51.146;17.112;2023-06-24T05:40:58;100834.40;;;15.90
68952;BMP180;56000;51.146;17.112;2023-06-24T05:43:34;100836.00;;;15.90
68952;BMP180;56000;51.146;17.112;2023-06-24T05:46:07;100841.00;;;16.00
68952;BMP180;56000;51.146;17.112;2023-06-24T05:48:40;100842.80;;;16.00
68952;BMP180;56000;51.146;17.112;2023-06-24T05:51:13;100842.00;;;16.02
68952;BMP180;56000;51.146;17.112;2023-06-24T05:53:46;100847.40;;;16.10
68952;BMP180;56000;51.146;17.112;2023-06-24T05:56:19;100849.00;;;16.10
68952;BMP180;56000;51.146;17.112;2023-06-24T05:58:53;100844.80;;;16.20
68952;BMP180;56000;51.146;17.112;2023-06-24T06:01:26;100846.80;;;16.30
68952;BMP180;56000;51.146;17.112;2023-06-24T06:03:59;100839.60;;;16.40
68952;BMP180;56000;51.146;17.112;2023-06-24T06:06:32;100838.40;;;16.50
68952;BMP180;56000;51.146;17.112;2023-06-24T06:09:06;100843.00;;;16.60
68952;BMP180;56000;51.146;17.112;2023-06-24T06:11:39;100835.20;;;16.70
68952;BMP180;56000;51.146;17.112;2023-06-24T06:14:13;100844.40;;;16.80
68952;BMP180;56000;51.146;17.112;2023-06-24T06:16:46;100852.00;;;16.90
68952;BMP180;56000;51.146;17.112;2023-06-24T06:19:19;100854.20;;;16.92
68952;BMP180;56000;51.146;17.112;2023-06-24T06:21:54;100850.60;;;17.00
68952;BMP180;56000;51.146;17.112;2023-06-24T06:24:27;100854.20;;;17.10
68952;BMP180;56000;51.146;17.112;2023-06-24T06:27:00;100859.60;;;17.20
68952;BMP180;56000;51.146;17.112;2023-06-24T06:29:33;100863.00;;;17.20
68952;BMP180;56000;51.146;17.112;2023-06-24T06:32:08;100862.80;;;17.20
68952;BMP180;56000;51.146;17.112;2023-06-24T06:34:41;100864.00;;;17.20
68952;BMP180;56000;51.146;17.112;2023-06-24T06:37:14;100862.80;;;17.20
68952;BMP180;56000;51.146;17.112;2023-06-24T06:39:47;100860.20;;;17.30
68952;BMP180;56000;51.146;17.112;2023-06-24T06:42:20;100863.20;;;17.30
68952;BMP180;56000;51.146;17.112;2023-06-24T06:44:54;100859.60;;;17.40
68952;BMP180;56000;51.146;17.112;2023-06-24T06:47:27;100861.60;;;17.50
68952;BMP180;56000;51.146;17.112;2023-06-24T06:50:00;100867.20;;;17.60
68952;BMP180;56000;51.146;17.112;2023-06-24T06:52:33;100867.20;;;17.62
68952;BMP180;56000;51.146;17.112;2023-06-24T06:55:08;100863.00;;;17.66
68952;BMP180;56000;51.146;17.112;2023-06-24T06:57:41;100861.60;;;17.60
68952;BMP180;56000;51.146;17.112;2023-06-24T07:00:16;100859.40;;;17.70
68952;BMP180;56000;51.146;17.112;2023-06-24T07:02:49;100867.80;;;17.70
68952;BMP180;56000;51.146;17.112;2023-06-24T07:05:22;100863.60;;;17.70
68952;BMP180;56000;51.146;17.112;2023-06-24T07:07:55;100863.20;;;17.70
68952;BMP180;56000;51.146;17.112;2023-06-24T07:10:29;100867.20;;;17.70
68952;BMP180;56000;51.146;17.112;2023-06-24T07:13:02;100871.60;;;17.80
68952;BMP180;56000;51.146;17.112;2023-06-24T07:15:35;100868.00;;;17.90
68952;BMP180;56000;51.146;17.112;2023-06-24T07:18:08;100867.40;;;18.00
68952;BMP180;56000;51.146;17.112;2023-06-24T07:20:41;100869.80;;;18.10
68952;BMP180;56000;51.146;17.112;2023-06-24T07:23:14;100866.20;;;18.10
68952;BMP180;56000;51.146;17.112;2023-06-24T07:25:47;100865.00;;;18.10
68952;BMP180;56000;51.146;17.112;2023-06-24T07:28:21;100861.00;;;18.10
68952;BMP180;56000;51.146;17.112;2023-06-24T07:30:54;100876.00;;;18.18
68952;BMP180;56000;51.146;17.112;2023-06-24T07:33:27;100874.80;;;18.20
68952;BMP180;56000;51.146;17.112;2023-06-24T07:36:02;100873.80;;;18.30
68952;BMP180;56000;51.146;17.112;2023-06-24T07:38:36;100875.80;;;18.30
68952;BMP180;56000;51.146;17.112;2023-06-24T07:41:09;100871.40;;;18.30
68952;BMP180;56000;51.146;17.112;2023-06-24T07:43:42;100871.00;;;18.24
68952;BMP180;56000;51.146;17.112;2023-06-24T07:46:15;100875.00;;;18.20
68952;BMP180;56000;51.146;17.112;2023-06-24T07:48:49;100875.60;;;18.10
68952;BMP180;56000;51.146;17.112;2023-06-24T07:51:22;100870.20;;;18.10
68952;BMP180;56000;51.146;17.112;2023-06-24T07:53:55;100876.20;;;18.10
68952;BMP180;56000;51.146;17.112;2023-06-24T07:56:28;100870.80;;;18.20
68952;BMP180;56000;51.146;17.112;2023-06-24T07:59:01;100875.60;;;18.20
68952;BMP180;56000;51.146;17.112;2023-06-24T08:01:34;100872.00;;;18.30
68952;BMP180;56000;51.146;17.112;2023-06-24T08:04:07;100874.60;;;18.32
68952;BMP180;56000;51.146;17.112;2023-06-24T08:06:41;100876.00;;;18.40
68952;BMP180;56000;51.146;17.112;2023-06-24T08:09:15;100878.20;;;18.44
68952;BMP180;56000;51.146;17.112;2023-06-24T08:11:49;100878.20;;;18.50
68952;BMP180;56000;51.146;17.112;2023-06-24T08:14:22;100881.00;;;18.50
68952;BMP180;56000;51.146;17.112;2023-06-24T08:16:55;100885.00;;;18.50
68952;BMP180;56000;51.146;17.112;2023-06-24T08:19:28;100884.40;;;18.60
68952;BMP180;56000;51.146;17.112;2023-06-24T08:22:01;100889.40;;;18.80
68952;BMP180;56000;51.146;17.112;2023-06-24T08:24:35;100893.80;;;18.90
68952;BMP180;56000;51.146;17.112;2023-06-24T08:27:08;100892.00;;;18.90
68952;BMP180;56000;51.146;17.112;2023-06-24T08:29:42;100897.20;;;18.92
68952;BMP180;56000;51.146;17.112;2023-06-24T08:32:15;100893.80;;;19.00
68952;BMP180;56000;51.146;17.112;2023-06-24T08:34:48;100893.60;;;19.00
68952;BMP180;56000;51.146;17.112;2023-06-24T08:37:21;100896.40;;;19.10
68952;BMP180;56000;51.146;17.112;2023-06-24T08:39:54;100893.80;;;19.20
68952;BMP180;56000;51.146;17.112;2023-06-24T08:42:27;100902.60;;;19.20
68952;BMP180;56000;51.146;17.112;2023-06-24T08:45:00;100901.00;;;19.30
68952;BMP180;56000;51.146;17.112;2023-06-24T08:47:34;100904.20;;;19.34
68952;BMP180;56000;51.146;17.112;2023-06-24T08:50:13;100899.40;;;19.40
68952;BMP180;56000;51.146;17.112;2023-06-24T08:52:51;100904.80;;;19.44
68952;BMP180;56000;51.146;17.112;2023-06-24T08:55:29;100903.40;;;19.50
68952;BMP180;56000;51.146;17.112;2023-06-24T08:58:04;100905.40;;;19.54
68952;BMP180;56000;51.146;17.112;2023-06-24T09:00:37;100905.60;;;19.60
68952;BMP180;56000;51.146;17.112;2023-06-24T09:03:10;100908.80;;;19.70
68952;BMP180;56000;51.146;17.112;2023-06-24T09:05:44;100902.20;;;19.70
68952;BMP180;56000;51.146;17.112;2023-06-24T09:08:17;100910.00;;;19.80
68952;BMP180;56000;51.146;17.112;2023-06-24T09:10:56;100912.40;;;19.80
68952;BMP180;56000;51.146;17.112;2023-06-24T09:13:36;100916.20;;;19.80
68952;BMP180;56000;51.146;17.112;2023-06-24T09:16:16;100911.80;;;19.70
68952;BMP180;56000;51.146;17.112;2023-06-24T09:18:52;100914.80;;;19.60
68952;BMP180;56000;51.146;17.112;2023-06-24T09:21:27;100919.80;;;19.50
68952;BMP180;56000;51.146;17.112;2023-06-24T09:24:02;100916.40;;;19.50
68952;BMP180;56000;51.146;17.112;2023-06-24T09:26:35;100917.80;;;19.40
68952;BMP180;56000;51.146;17.112;2023-06-24T09:29:08;100918.60;;;19.40
68952;BMP180;56000;51.146;17.112;2023-06-24T09:31:50;100915.60;;;19.50
68952;BMP180;56000;51.146;17.112;2023-06-24T09:34:24;100915.60;;;19.60
68952;BMP180;56000;51.146;17.112;2023-06-24T09:36:58;100913.40;;;19.70
68952;BMP180;56000;51.146;17.112;2023-06-24T09:39:36;100913.20;;;19.82
68952;BMP180;56000;51.146;17.112;2023-06-24T09:42:10;100902.20;;;20.08
68952;BMP180;56000;51.146;17.112;2023-06-24T09:44:45;100905.20;;;20.36
68952;BMP180;56000;51.146;17.112;2023-06-24T09:47:25;100906.00;;;20.72
68952;BMP180;56000;51.146;17.112;2023-06-24T09:49:59;100904.20;;;21.04
68952;BMP180;56000;51.146;17.112;2023-06-24T09:52:36;100899.60;;;21.36
68952;BMP180;56000;51.146;17.112;2023-06-24T09:55:11;100897.40;;;21.60
68952;BMP180;56000;51.146;17.112;2023-06-24T09:57:49;100900.00;;;21.90
68952;BMP180;56000;51.146;17.112;2023-06-24T10:00:24;100904.60;;;22.00
68952;BMP180;56000;51.146;17.112;2023-06-24T10:02:58;100904.00;;;22.00
68952;BMP180;56000;51.146;17.112;2023-06-24T10:05:32;100904.40;;;22.00
68952;BMP180;56000;51.146;17.112;2023-06-24T10:08:06;100900.60;;;22.00
68952;BMP180;56000;51.146;17.112;2023-06-24T10:10:39;100901.00;;;22.00
68952;BMP180;56000;51.146;17.112;2023-06-24T10:13:13;100906.00;;;22.10
68952;BMP180;56000;51.146;17.112;2023-06-24T10:15:46;100899.00;;;22.10
68952;BMP180;56000;51.146;17.112;2023-06-24T10:18:39;100905.20;;;22.10
68952;BMP180;56000;51.146;17.112;2023-06-24T10:21:14;100905.60;;;22.00
68952;BMP180;56000;51.146;17.112;2023-06-24T10:23:55;100900.40;;;22.00
68952;BMP180;56000;51.146;17.112;2023-06-24T10:26:29;100903.60;;;22.10
68952;BMP180;56000;51.146;17.112;2023-06-24T10:29:19;100903.00;;;22.20
68952;BMP180;56000;51.146;17.112;2023-06-24T10:32:07;100901.20;;;22.30
68952;BMP180;56000;51.146;17.112;2023-06-24T10:34:44;100904.40;;;22.40
68952;BMP180;56000;51.146;17.112;2023-06-24T10:37:24;100898.40;;;22.54
68952;BMP180;56000;51.146;17.112;2023-06-24T10:39:57;100897.80;;;22.70
68952;BMP180;56000;51.146;17.112;2023-06-24T10:42:38;100891.20;;;22.70
68952;BMP180;56000;51.146;17.112;2023-06-24T10:45:21;100894.00;;;22.80
68952;BMP180;56000;51.146;17.112;2023-06-24T10:47:55;100889.40;;;22.90
68952;BMP180;56000;51.146;17.112;2023-06-24T10:50:31;100893.60;;;23.00
68952;BMP180;56000;51.146;17.112;2023-06-24T10:53:09;100899.80;;;23.10
68952;BMP180;56000;51.146;17.112;2023-06-24T10:55:42;100903.00;;;23.26
68952;BMP180;56000;51.146;17.112;2023-06-24T10:58:17;100897.60;;;23.40
68952;BMP180;56000;51.146;17.112;2023-06-24T11:00:50;100892.80;;;23.64
68952;BMP180;56000;51.146;17.112;2023-06-24T11:03:23;100896.00;;;24.10
68952;BMP180;56000;51.146;17.112;2023-06-24T11:05:56;100895.40;;;24.62
68952;BMP180;56000;51.146;17.112;2023-06-24T11:08:29;100892.60;;;25.12
68952;BMP180;56000;51.146;17.112;2023-06-24T11:11:02;100879.80;;;26.16
68952;BMP180;56000;51.146;17.112;2023-06-24T11:13:37;100878.40;;;27.84
68952;BMP180;56000;51.146;17.112;2023-06-24T11:16:14;100875.40;;;29.18
68952;BMP180;56000;51.146;17.112;2023-06-24T11:18:47;100871.80;;;29.84
68952;BMP180;56000;51.146;17.112;2023-06-24T11:21:20;100871.80;;;30.56
68952;BMP180;56000;51.146;17.112;2023-06-24T11:24:05;100873.20;;;30.80
68952;BMP180;56000;51.146;17.112;2023-06-24T11:26:40;100866.20;;;31.14
68952;BMP180;56000;51.146;17.112;2023-06-24T11:29:15;100869.00;;;31.30
68952;BMP180;56000;51.146;17.112;2023-06-24T11:31:50;100854.80;;;31.40
68952;BMP180;56000;51.146;17.112;2023-06-24T11:34:23;100856.80;;;31.90
68952;BMP180;56000;51.146;17.112;2023-06-24T11:36:56;100838.60;;;32.22
68952;BMP180;56000;51.146;17.112;2023-06-24T11:39:30;100836.20;;;33.08
68952;BMP180;56000;51.146;17.112;2023-06-24T11:42:05;100836.20;;;33.72
68952;BMP180;56000;51.146;17.112;2023-06-24T11:44:42;100843.20;;;34.78
68952;BMP180;56000;51.146;17.112;2023-06-24T11:47:15;100837.80;;;35.52
68952;BMP180;56000;51.146;17.112;2023-06-24T11:49:57;100843.20;;;35.90
68952;BMP180;56000;51.146;17.112;2023-06-24T11:52:41;100841.00;;;35.96
68952;BMP180;56000;51.146;17.112;2023-06-24T11:55:22;100840.00;;;36.00
68952;BMP180;56000;51.146;17.112;2023-06-24T11:57:57;100839.60;;;36.20
68952;BMP180;56000;51.146;17.112;2023-06-24T12:00:35;100826.00;;;35.80
68952;BMP180;56000;51.146;17.112;2023-06-24T12:03:09;100828.60;;;36.38
68952;BMP180;56000;51.146;17.112;2023-06-24T12:05:48;100828.40;;;35.90
68952;BMP180;56000;51.146;17.112;2023-06-24T12:08:21;100828.20;;;36.02
68952;BMP180;56000;51.146;17.112;2023-06-24T12:10:56;100839.00;;;36.70
68952;BMP180;56000;51.146;17.112;2023-06-24T12:13:29;100826.80;;;36.80
68952;BMP180;56000;51.146;17.112;2023-06-24T12:16:02;100833.20;;;37.34
68952;BMP180;56000;51.146;17.112;2023-06-24T12:18:35;100827.80;;;38.02
68952;BMP180;56000;51.146;17.112;2023-06-24T12:21:08;100823.80;;;38.50
68952;BMP180;56000;51.146;17.112;2023-06-24T12:23:42;100824.20;;;39.00
68952;BMP180;56000;51.146;17.112;2023-06-24T12:26:15;100818.80;;;39.28
68952;BMP180;56000;51.146;17.112;2023-06-24T12:28:48;100817.20;;;39.70
68952;BMP180;56000;51.146;17.112;2023-06-24T12:31:21;100815.60;;;40.10
68952;BMP180;56000;51.146;17.112;2023-06-24T12:33:54;100817.40;;;40.10
68952;BMP180;56000;51.146;17.112;2023-06-24T12:36:28;100815.60;;;39.98
68952;BMP180;56000;51.146;17.112;2023-06-24T12:39:02;100816.80;;;40.02
68952;BMP180;56000;51.146;17.112;2023-06-24T12:41:36;100812.40;;;40.48
68952;BMP180;56000;51.146;17.112;2023-06-24T12:44:09;100825.00;;;40.44
68952;BMP180;56000;51.146;17.112;2023-06-24T12:46:42;100821.20;;;38.62
68952;BMP180;56000;51.146;17.112;2023-06-24T12:49:15;100822.60;;;36.88
68952;BMP180;56000;51.146;17.112;2023-06-24T12:51:48;100809.60;;;37.06
68952;BMP180;56000;51.146;17.112;2023-06-24T12:54:21;100809.80;;;37.86
68952;BMP180;56000;51.146;17.112;2023-06-24T12:56:54;100812.80;;;38.80
68952;BMP180;56000;51.146;17.112;2023-06-24T12:59:43;100810.60;;;39.40
68952;BMP180;56000;51.146;17.112;2023-06-24T13:02:16;100812.80;;;40.02
68952;BMP180;56000;51.146;17.112;2023-06-24T13:04:49;100809.60;;;39.54
68952;BMP180;56000;51.146;17.112;2023-06-24T13:07:23;100809.80;;;39.52
68952;BMP180;56000;51.146;17.112;2023-06-24T13:09:56;100814.00;;;40.00
68952;BMP180;56000;51.146;17.112;2023-06-24T13:12:31;100809.40;;;40.08
68952;BMP180;56000;51.146;17.112;2023-06-24T13:15:05;100806.40;;;40.84
68952;BMP180;56000;51.146;17.112;2023-06-24T13:17:41;100802.60;;;41.30
68952;BMP180;56000;51.146;17.112;2023-06-24T13:20:15;100807.20;;;41.60
68952;BMP180;56000;51.146;17.112;2023-06-24T13:22:48;100811.00;;;40.52
68952;BMP180;56000;51.146;17.112;2023-06-24T13:25:21;100799.60;;;38.98
68952;BMP180;56000;51.146;17.112;2023-06-24T13:27:55;100802.00;;;39.20
68952;BMP180;56000;51.146;17.112;2023-06-24T13:30:29;100803.40;;;39.64
68952;BMP180;56000;51.146;17.112;2023-06-24T13:33:02;100801.60;;;40.10
68952;BMP180;56000;51.146;17.112;2023-06-24T13:35:35;100808.20;;;39.10
68952;BMP180;56000;51.146;17.112;2023-06-24T13:38:08;100800.80;;;38.04
68952;BMP180;56000;51.146;17.112;2023-06-24T13:40:41;100797.80;;;37.10
68952;BMP180;56000;51.146;17.112;2023-06-24T13:43:14;100800.20;;;37.60
68952;BMP180;56000;51.146;17.112;2023-06-24T13:45:47;100796.40;;;38.06
68952;BMP180;56000;51.146;17.112;2023-06-24T13:48:20;100791.60;;;38.54
68952;BMP180;56000;51.146;17.112;2023-06-24T13:50:53;100794.00;;;39.44
68952;BMP180;56000;51.146;17.112;2023-06-24T13:53:26;100795.80;;;40.10
68952;BMP180;56000;51.146;17.112;2023-06-24T13:55:59;100795.20;;;40.20
68952;BMP180;56000;51.146;17.112;2023-06-24T13:58:33;100796.20;;;40.30
68952;BMP180;56000;51.146;17.112;2023-06-24T14:01:06;100792.60;;;40.40
68952;BMP180;56000;51.146;17.112;2023-06-24T14:03:39;100785.00;;;41.00
68952;BMP180;56000;51.146;17.112;2023-06-24T14:06:15;100790.80;;;40.90
68952;BMP180;56000;51.146;17.112;2023-06-24T14:08:48;100787.40;;;39.70
68952;BMP180;56000;51.146;17.112;2023-06-24T14:11:22;100789.60;;;39.68
68952;BMP180;56000;51.146;17.112;2023-06-24T14:13:55;100788.40;;;40.00
68952;BMP180;56000;51.146;17.112;2023-06-24T14:16:28;100791.80;;;40.34
68952;BMP180;56000;51.146;17.112;2023-06-24T14:19:01;100793.80;;;40.52
68952;BMP180;56000;51.146;17.112;2023-06-24T14:21:35;100793.80;;;39.66
68952;BMP180;56000;51.146;17.112;2023-06-24T14:24:10;100793.40;;;37.76
68952;BMP180;56000;51.146;17.112;2023-06-24T14:26:47;100793.60;;;35.92
68952;BMP180;56000;51.146;17.112;2023-06-24T14:29:21;100794.40;;;34.28